createdAt,value
2018-01-15T00:01:10.241Z,86.77
2018-01-15T00:03:37.929Z,87.48
2018-01-15T00:06:05.572Z,87.20
2018-01-15T00:08:33.160Z,87.65
2018-01-15T00:11:00.714Z,87.80
2018-01-15T00:13:28.577Z,88.10
2018-01-15T00:15:56.181Z,87.91
2018-01-15T00:18:23.799Z,87.67
2018-01-15T00:20:51.406Z,87.69
2018-01-15T00:23:19.071Z,87.72
2018-01-15T00:25:46.730Z,88.22
2018-01-15T00:28:14.351Z,87.85
2018-01-15T00:30:41.987Z,87.88
2018-01-15T00:33:10.507Z,88.23
2018-01-15T00:35:38.140Z,88.61
2018-01-15T00:38:05.959Z,88.98
2018-01-15T00:40:33.688Z,89.00
2018-01-15T00:43:01.331Z,89.23
2018-01-15T00:45:29.056Z,89.80
2018-01-15T00:47:56.730Z,89.54
2018-01-15T00:50:24.668Z,89.85
2018-01-15T00:52:52.545Z,90.35
2018-01-15T00:55:20.718Z,90.45
2018-01-15T00:57:48.405Z,90.42
2018-01-15T01:00:16.134Z,90.65
2018-01-15T01:02:43.701Z,90.69
2018-01-15T01:05:12.202Z,90.73
2018-01-15T01:07:39.775Z,90.86
2018-01-15T01:10:07.361Z,90.87
2018-01-15T01:12:34.992Z,90.50
2018-01-15T01:15:02.571Z,91.05
2018-01-15T01:17:30.143Z,90.91
2018-01-15T01:19:57.759Z,90.99
2018-01-15T01:22:25.352Z,91.30
2018-01-15T01:24:52.985Z,91.68
2018-01-15T01:27:20.770Z,91.53
2018-01-15T01:29:50.187Z,92.15
2018-01-15T01:32:17.775Z,91.95
2018-01-15T01:34:45.402Z,91.88
2018-01-15T01:37:14.029Z,92.03
2018-01-15T01:39:41.666Z,91.88
2018-01-15T01:42:09.275Z,92.33
2018-01-15T01:44:37.165Z,91.94
2018-01-15T01:47:04.978Z,92.22
2018-01-15T01:49:32.666Z,92.25
2018-01-15T01:52:00.255Z,92.09
2018-01-15T01:54:27.856Z,91.83
2018-01-15T01:56:55.430Z,92.09
2018-01-15T01:59:23.079Z,92.16
2018-01-15T02:01:50.845Z,91.72
2018-01-15T02:04:18.500Z,91.55
2018-01-15T02:06:46.331Z,91.65
2018-01-15T02:09:14.028Z,91.80
2018-01-15T02:11:42.163Z,91.95
2018-01-15T02:14:09.767Z,91.65
2018-01-15T02:16:37.508Z,91.72
2018-01-15T02:19:05.125Z,92.09
2018-01-15T02:21:32.748Z,92.03
2018-01-15T02:24:00.681Z,92.09
2018-01-15T02:26:28.250Z,92.24
2018-01-15T02:28:55.891Z,92.52
2018-01-15T02:31:23.970Z,92.01
2018-01-15T02:33:51.674Z,92.15
2018-01-15T02:36:19.260Z,92.53
2018-01-15T02:38:47.104Z,92.60
2018-01-15T02:41:14.733Z,92.52
2018-01-15T02:43:42.320Z,92.80
2018-01-15T02:46:10.204Z,92.71
2018-01-15T02:48:37.795Z,92.79
2018-01-15T02:51:05.512Z,93.17
2018-01-15T02:53:33.101Z,92.81
2018-01-15T02:56:00.738Z,92.84
2018-01-15T02:58:28.431Z,92.75
2018-01-15T03:00:56.208Z,92.70
2018-01-15T03:03:23.856Z,92.63
2018-01-15T03:05:51.456Z,92.75
2018-01-15T03:08:19.176Z,93.03
2018-01-15T03:10:46.981Z,93.02
2018-01-15T03:13:15.039Z,93.24
2018-01-15T03:15:43.034Z,93.12
2018-01-15T03:18:10.766Z,92.85
2018-01-15T03:20:38.478Z,92.75
2018-01-15T03:23:07.906Z,92.71
2018-01-15T03:25:37.163Z,92.71
2018-01-15T03:28:04.812Z,92.60
2018-01-15T03:30:32.471Z,92.99
2018-01-15T03:33:00.114Z,93.12
2018-01-15T03:35:28.242Z,92.76
2018-01-15T03:37:56.630Z,92.51
2018-01-15T03:40:24.303Z,92.57
2018-01-15T03:42:52.056Z,92.65
2018-01-15T03:45:20.025Z,92.53
2018-01-15T03:47:47.661Z,92.72
2018-01-15T03:50:15.658Z,92.80
2018-01-15T03:52:43.317Z,92.90
2018-01-15T03:55:12.283Z,93.03
2018-01-15T03:57:39.885Z,93.12
2018-01-15T04:00:07.499Z,93.15
2018-01-15T04:02:35.140Z,92.79
2018-01-15T04:05:02.763Z,92.72
2018-01-15T04:07:30.594Z,92.91
2018-01-15T04:09:58.305Z,92.86
2018-01-15T04:12:25.901Z,92.70
2018-01-15T04:14:53.860Z,92.95
2018-01-15T04:17:29.296Z,93.01
2018-01-15T04:19:57.825Z,92.83
2018-01-15T04:22:25.576Z,92.93
2018-01-15T04:24:53.254Z,92.90
2018-01-15T04:27:21.022Z,93.13
2018-01-15T04:29:48.636Z,92.95
2018-01-15T04:32:16.349Z,92.65
2018-01-15T04:34:44.016Z,92.37
2018-01-15T04:39:45.061Z,92.22
2018-01-15T04:42:12.631Z,92.35
2018-01-15T04:44:40.221Z,92.45
2018-01-15T04:47:08.467Z,92.24
2018-01-15T04:49:36.148Z,92.69
2018-01-15T04:52:03.726Z,92.58
2018-01-15T04:54:31.583Z,92.72
2018-01-15T04:56:59.258Z,92.72
2018-01-15T04:59:26.875Z,92.56
2018-01-15T05:01:54.817Z,92.51
2018-01-15T05:04:23.292Z,92.44
2018-01-15T05:06:50.912Z,92.49
2018-01-15T05:09:18.522Z,92.46
2018-01-15T05:11:46.227Z,92.22
2018-01-15T05:14:14.024Z,92.14
2018-01-15T05:16:41.638Z,91.93
2018-01-15T05:19:10.173Z,92.39
2018-01-15T05:21:37.771Z,92.32
2018-01-15T05:24:05.481Z,92.35
2018-01-15T05:26:33.230Z,92.34
2018-01-15T05:29:01.613Z,91.97
2018-01-15T05:31:29.538Z,91.93
2018-01-15T05:33:57.133Z,92.06
2018-01-15T05:36:25.360Z,92.39
2018-01-15T05:38:53.295Z,92.45
2018-01-15T05:41:20.881Z,92.29
2018-01-15T05:43:48.664Z,92.36
2018-01-15T05:46:16.606Z,92.43
2018-01-15T05:48:44.240Z,92.37
2018-01-15T05:51:12.061Z,92.57
2018-01-15T05:53:39.672Z,92.28
2018-01-15T05:56:07.277Z,92.29
2018-01-15T05:58:35.130Z,92.46
2018-01-15T06:01:02.739Z,92.19
2018-01-15T06:03:30.323Z,92.20
2018-01-15T06:05:57.928Z,91.95
2018-01-15T06:08:25.534Z,91.82
2018-01-15T06:10:53.159Z,91.68
2018-01-15T06:13:20.804Z,91.92
2018-01-15T06:15:48.388Z,91.64
2018-01-15T06:18:16.041Z,91.61
2018-01-15T06:20:43.676Z,91.59
2018-01-15T06:23:12.185Z,91.78
2018-01-15T06:25:39.961Z,91.87
2018-01-15T06:28:07.538Z,92.19
2018-01-15T06:30:35.136Z,92.15
2018-01-15T06:33:02.871Z,92.33
2018-01-15T06:35:30.445Z,92.39
2018-01-15T06:37:58.045Z,92.41
2018-01-15T06:40:25.688Z,92.26
2018-01-15T06:42:53.289Z,91.88
2018-01-15T06:45:21.033Z,91.87
2018-01-15T06:47:48.690Z,91.73
2018-01-15T06:50:16.290Z,91.99
2018-01-15T06:52:43.905Z,92.36
2018-01-15T06:55:11.748Z,92.13
2018-01-15T06:57:39.359Z,91.89
2018-01-15T07:00:07.183Z,91.72
2018-01-15T07:02:34.868Z,91.70
2018-01-15T07:05:02.532Z,91.67
2018-01-15T07:07:31.115Z,91.55
2018-01-15T07:09:58.932Z,91.70
2018-01-15T07:12:26.533Z,91.65
2018-01-15T07:14:54.639Z,91.46
2018-01-15T07:17:23.230Z,91.55
2018-01-15T07:19:51.433Z,91.69
2018-01-15T07:22:19.840Z,91.79
2018-01-15T07:24:47.520Z,91.35
2018-01-15T07:27:15.117Z,90.07
2018-01-15T07:29:42.740Z,90.06
2018-01-15T07:32:10.318Z,89.53
2018-01-15T07:34:37.932Z,89.86
2018-01-15T07:37:05.750Z,90.32
2018-01-15T07:39:33.426Z,90.04
2018-01-15T07:42:01.098Z,90.72
2018-01-15T07:44:28.710Z,91.39
2018-01-15T07:46:56.321Z,90.88
2018-01-15T07:49:24.192Z,91.68
2018-01-15T07:51:51.790Z,91.28
2018-01-15T07:54:19.495Z,89.31
2018-01-15T07:56:47.064Z,87.57
2018-01-15T07:59:14.699Z,88.05
2018-01-15T08:01:42.513Z,87.39
2018-01-15T08:04:10.121Z,87.61
2018-01-15T08:06:37.715Z,89.63
2018-01-15T08:09:06.807Z,87.93
2018-01-15T08:11:34.704Z,87.64
2018-01-15T08:14:02.286Z,87.02
2018-01-15T08:16:29.901Z,86.32
2018-01-15T08:18:57.479Z,86.41
2018-01-15T08:21:25.303Z,86.24
2018-01-15T08:23:52.943Z,86.10
2018-01-15T08:26:20.608Z,85.65
2018-01-15T08:28:48.234Z,85.38
2018-01-15T08:31:15.846Z,84.61
2018-01-15T08:33:43.791Z,85.24
2018-01-15T08:36:11.719Z,84.62
2018-01-15T08:38:39.337Z,85.29
2018-01-15T08:41:07.139Z,85.60
2018-01-15T08:43:35.383Z,85.83
2018-01-15T08:46:02.982Z,86.94
2018-01-15T08:48:30.554Z,87.10
2018-01-15T08:50:58.543Z,87.00
2018-01-15T08:53:26.224Z,85.60
2018-01-15T08:55:53.789Z,85.85
2018-01-15T08:58:21.799Z,85.63
2018-01-15T09:00:49.841Z,85.57
2018-01-15T09:03:17.668Z,85.89
2018-01-15T09:05:45.265Z,86.10
2018-01-15T09:08:12.821Z,86.44
2018-01-15T09:10:40.430Z,86.66
2018-01-15T09:13:08.362Z,86.35
2018-01-15T09:15:35.952Z,86.32
2018-01-15T09:18:03.844Z,86.33
2018-01-15T09:20:31.827Z,85.59
2018-01-15T09:22:59.428Z,85.02
2018-01-15T09:25:27.773Z,85.28
2018-01-15T09:27:55.454Z,85.23
2018-01-15T09:30:23.050Z,85.87
2018-01-15T09:32:50.636Z,85.66
2018-01-15T09:35:18.243Z,84.87
2018-01-15T09:37:45.830Z,83.62
2018-01-15T09:40:14.002Z,82.21
2018-01-15T09:42:41.558Z,82.25
2018-01-15T09:45:09.883Z,82.42
2018-01-15T09:47:37.549Z,81.79
2018-01-15T09:50:05.153Z,81.77
2018-01-15T09:52:32.812Z,81.49
2018-01-15T09:55:00.453Z,79.41
2018-01-15T09:57:28.182Z,79.45
2018-01-15T09:59:55.810Z,80.62
2018-01-15T10:02:23.813Z,81.25
2018-01-15T10:04:51.457Z,81.50
2018-01-15T10:07:19.417Z,81.33
2018-01-15T10:09:47.100Z,80.77
2018-01-15T10:12:14.738Z,80.31
2018-01-15T10:14:42.342Z,80.38
2018-01-15T10:17:10.860Z,80.67
2018-01-15T10:19:38.517Z,80.42
2018-01-15T10:22:06.090Z,79.68
2018-01-15T10:24:33.668Z,79.14
2018-01-15T10:27:01.282Z,77.41
2018-01-15T10:29:30.108Z,78.19
2018-01-15T10:31:57.722Z,78.62
2018-01-15T10:34:25.325Z,77.02
2018-01-15T10:36:52.897Z,76.69
2018-01-15T10:39:20.463Z,75.84
2018-01-15T10:41:48.088Z,76.34
2018-01-15T10:47:05.970Z,77.54
2018-01-15T10:49:33.545Z,78.08
2018-01-15T10:52:02.204Z,77.29
2018-01-15T10:54:30.704Z,77.46
2018-01-15T10:56:58.328Z,76.72
2018-01-15T10:59:25.914Z,73.10
2018-01-15T11:01:53.993Z,72.08
2018-01-15T11:04:21.709Z,72.90
2018-01-15T11:06:51.100Z,72.04
2018-01-15T11:09:19.189Z,72.80
2018-01-15T11:11:46.770Z,73.63
2018-01-15T11:14:18.004Z,74.00
2018-01-15T11:16:45.672Z,74.26
2018-01-15T11:19:13.320Z,74.30
2018-01-15T11:21:40.918Z,73.74
2018-01-15T11:24:10.492Z,73.67
2018-01-15T11:26:38.266Z,72.02
2018-01-15T11:29:06.555Z,72.78
2018-01-15T11:31:34.318Z,71.88
2018-01-15T11:34:02.078Z,71.75
2018-01-15T11:36:29.732Z,73.77
2018-01-15T11:38:57.303Z,72.13
2018-01-15T11:41:24.844Z,72.70
2018-01-15T11:43:53.428Z,71.39
2018-01-15T11:46:21.138Z,70.16
2018-01-15T11:48:48.689Z,70.33
2018-01-15T11:51:16.817Z,71.53
2018-01-15T11:53:44.421Z,70.96
2018-01-15T11:56:12.003Z,71.50
2018-01-15T11:58:39.597Z,71.99
2018-01-15T12:01:08.741Z,71.11
2018-01-15T12:03:36.318Z,69.52
2018-01-15T12:06:03.884Z,70.35
2018-01-15T12:08:31.484Z,70.09
2018-01-15T12:10:59.077Z,69.92
2018-01-15T12:13:26.790Z,70.88
2018-01-15T12:15:54.343Z,70.59
2018-01-15T12:18:22.081Z,69.63
2018-01-15T12:20:49.632Z,70.50
2018-01-15T12:23:17.306Z,72.23
2018-01-15T12:25:44.956Z,71.21
2018-01-15T12:28:12.697Z,69.01
2018-01-15T12:30:40.292Z,69.05
2018-01-15T12:33:08.293Z,68.10
2018-01-15T12:35:37.045Z,67.47
2018-01-15T12:38:04.619Z,67.29
2018-01-15T12:40:32.208Z,68.83
2018-01-15T12:42:59.789Z,69.55
2018-01-15T12:45:27.530Z,71.12
2018-01-15T12:47:55.107Z,71.13
2018-01-15T12:50:22.715Z,72.47
2018-01-15T12:52:50.315Z,73.65
2018-01-15T12:55:17.896Z,73.17
2018-01-15T12:57:45.464Z,70.65
2018-01-15T13:00:13.002Z,70.45
2018-01-15T13:02:40.602Z,69.39
2018-01-15T13:05:08.491Z,69.82
2018-01-15T13:07:47.762Z,71.18
2018-01-15T13:10:15.329Z,70.61
2018-01-15T13:12:42.991Z,72.27
2018-01-15T13:15:11.264Z,71.50
2018-01-15T13:17:39.802Z,69.78
2018-01-15T13:20:07.387Z,69.56
2018-01-15T13:22:34.974Z,69.58
2018-01-15T13:25:02.533Z,70.50
2018-01-15T13:27:31.275Z,70.91
2018-01-15T13:29:58.856Z,71.81
2018-01-15T13:32:26.460Z,73.27
2018-01-15T13:34:54.045Z,72.07
2018-01-15T13:37:21.622Z,71.35
2018-01-15T13:39:49.214Z,71.58
2018-01-15T13:42:16.821Z,71.34
2018-01-15T13:44:44.420Z,70.20
2018-01-15T13:47:12.486Z,68.93
2018-01-15T13:49:40.131Z,66.83
2018-01-15T13:52:07.771Z,61.76
2018-01-15T13:54:35.384Z,60.66
2018-01-15T13:57:03.029Z,61.91
2018-01-15T13:59:30.585Z,65.23
2018-01-15T14:01:58.140Z,65.38
2018-01-15T14:04:25.771Z,66.72
2018-01-15T14:06:53.357Z,67.49
2018-01-15T14:09:21.013Z,69.71
2018-01-15T14:11:48.627Z,72.67
2018-01-15T14:14:16.199Z,73.86
2018-01-15T14:16:43.776Z,74.34
2018-01-15T14:19:11.993Z,75.20
2018-01-15T14:21:39.570Z,76.10
2018-01-15T14:24:07.228Z,76.31
2018-01-15T14:26:34.841Z,76.78
2018-01-15T14:29:02.486Z,76.75
2018-01-15T14:31:30.039Z,77.07
2018-01-15T14:33:58.103Z,77.30
2018-01-15T14:36:25.697Z,76.96
2018-01-15T14:38:53.405Z,77.09
2018-01-15T14:41:20.951Z,77.45
2018-01-15T14:43:48.535Z,78.28
2018-01-15T14:46:16.162Z,79.20
2018-01-15T14:48:43.794Z,79.18
2018-01-15T14:51:11.475Z,78.83
2018-01-15T14:53:39.441Z,79.08
2018-01-15T14:56:07.037Z,78.89
2018-01-15T14:58:34.620Z,78.71
2018-01-15T15:01:02.274Z,79.32
2018-01-15T15:03:29.893Z,79.89
2018-01-15T15:06:00.278Z,80.64
2018-01-15T15:11:02.111Z,81.49
2018-01-15T15:13:29.736Z,81.79
2018-01-15T15:15:57.416Z,82.15
2018-01-15T15:18:25.319Z,83.08
2018-01-15T15:20:52.944Z,83.54
2018-01-15T15:23:20.565Z,83.67
2018-01-15T15:25:48.262Z,84.13
2018-01-15T15:28:21.278Z,84.64
2018-01-15T15:30:49.203Z,85.16
2018-01-15T15:33:17.355Z,85.43
2018-01-15T15:35:45.050Z,85.62
2018-01-15T15:38:13.174Z,85.79
2018-01-15T15:40:40.821Z,85.92
2018-01-15T15:43:10.779Z,86.04
2018-01-15T15:45:38.473Z,86.06
2018-01-15T15:48:09.060Z,86.36
2018-01-15T15:50:36.839Z,86.35
2018-01-15T15:53:06.510Z,86.14
2018-01-15T15:55:34.476Z,86.20
2018-01-15T15:58:02.770Z,85.71
2018-01-15T16:00:30.479Z,85.92
2018-01-15T16:02:58.208Z,85.87
2018-01-15T16:05:25.953Z,86.26
2018-01-15T16:07:53.601Z,86.60
2018-01-15T16:10:21.360Z,86.54
2018-01-15T16:12:48.961Z,86.59
2018-01-15T16:15:16.585Z,86.54
2018-01-15T16:17:44.230Z,86.45
2018-01-15T16:20:11.922Z,86.35
2018-01-15T16:22:51.690Z,86.29
2018-01-15T16:25:19.328Z,86.41
2018-01-15T16:27:46.970Z,86.06
2018-01-15T16:30:14.592Z,85.64
2018-01-15T16:32:49.867Z,85.34
2018-01-15T16:35:17.659Z,84.75
2018-01-15T16:37:45.253Z,84.31
2018-01-15T16:40:12.956Z,84.19
2018-01-15T16:42:40.581Z,84.17
2018-01-15T16:45:08.592Z,84.29
2018-01-15T16:47:36.202Z,84.51
2018-01-15T16:50:09.414Z,84.58
2018-01-15T16:52:37.098Z,84.44
2018-01-15T16:57:55.054Z,84.51
2018-01-15T17:00:22.646Z,84.45
2018-01-15T17:02:50.302Z,84.72
2018-01-15T17:05:18.309Z,84.34
2018-01-15T17:07:45.868Z,84.82
2018-01-15T17:10:14.051Z,85.08
2018-01-15T17:12:41.665Z,85.05
2018-01-15T17:15:09.973Z,84.88
2018-01-15T17:17:38.060Z,84.50
2018-01-15T17:20:05.766Z,84.68
2018-01-15T17:22:33.363Z,84.71
2018-01-15T17:25:00.971Z,84.70
2018-01-15T17:27:28.599Z,84.54
2018-01-15T17:29:56.214Z,84.33
2018-01-15T17:32:24.502Z,83.55
2018-01-15T17:34:52.105Z,83.47
2018-01-15T17:37:19.708Z,84.02
2018-01-15T17:39:47.314Z,84.93
2018-01-15T17:42:14.921Z,85.95
2018-01-15T17:44:42.510Z,86.38
2018-01-15T17:47:10.885Z,86.09
2018-01-15T17:49:38.491Z,85.85
2018-01-15T17:52:06.127Z,86.08
2018-01-15T17:54:33.719Z,86.19
2018-01-15T17:57:01.667Z,86.27
2018-01-15T17:59:29.286Z,86.54
2018-01-15T18:01:56.867Z,87.13
2018-01-15T18:04:25.038Z,87.79
2018-01-15T18:06:52.895Z,87.99
2018-01-15T18:09:20.750Z,88.00
2018-01-15T18:11:48.302Z,88.65
2018-01-15T18:14:16.225Z,88.71
2018-01-15T18:16:43.828Z,89.39
2018-01-15T18:19:11.929Z,89.52
2018-01-15T18:21:39.821Z,89.49
2018-01-15T18:24:07.489Z,89.53
2018-01-15T18:26:35.095Z,89.71
2018-01-15T18:29:02.658Z,89.93
2018-01-15T18:31:30.245Z,90.00
2018-01-15T18:33:57.821Z,90.13
2018-01-15T18:36:26.003Z,90.45
2018-01-15T18:38:53.582Z,90.44
2018-01-15T18:41:21.192Z,90.71
2018-01-15T18:43:48.785Z,90.37
2018-01-15T18:46:16.430Z,90.40
2018-01-15T18:48:44.088Z,90.46
2018-01-15T18:51:12.027Z,90.97
2018-01-15T18:53:39.626Z,91.50
2018-01-15T18:56:07.218Z,91.10
2018-01-15T18:58:34.800Z,91.05
2018-01-15T19:01:02.409Z,91.23
2018-01-15T19:03:30.113Z,91.14
2018-01-15T19:05:58.547Z,91.30
2018-01-15T19:08:26.221Z,91.49
2018-01-15T19:10:54.555Z,91.49
2018-01-15T19:13:22.157Z,91.42
2018-01-15T19:15:49.824Z,91.12
2018-01-15T19:18:17.509Z,91.38
2018-01-15T19:20:45.101Z,91.42
2018-01-15T19:23:12.700Z,91.28
2018-01-15T19:25:40.356Z,91.62
2018-01-15T19:28:07.993Z,91.96
2018-01-15T19:30:38.411Z,91.35
2018-01-15T19:33:06.116Z,91.19
2018-01-15T19:38:36.987Z,91.45
2018-01-15T19:41:04.628Z,91.55
2018-01-15T19:43:36.732Z,91.77
2018-01-15T19:46:09.987Z,92.34
2018-01-15T19:48:45.633Z,91.77
2018-01-15T19:51:18.836Z,91.52
2018-01-15T19:53:51.940Z,91.53
2018-01-15T19:59:15.417Z,91.77
2018-01-15T20:01:48.522Z,91.94
2018-01-15T20:04:21.577Z,91.98
2018-01-15T20:06:54.717Z,91.77
2018-01-15T20:09:28.512Z,92.00
2018-01-15T20:11:56.177Z,92.08
2018-01-15T20:14:24.715Z,92.04
2018-01-15T20:16:52.713Z,92.31
2018-01-15T20:19:20.579Z,92.43
2018-01-15T20:21:48.377Z,92.42
2018-01-15T20:24:15.979Z,92.45
2018-01-15T20:26:43.714Z,92.53
2018-01-15T20:29:11.318Z,92.62
2018-01-15T20:31:38.928Z,92.60
2018-01-15T20:34:06.587Z,92.15
2018-01-15T20:36:34.154Z,92.11
2018-01-15T20:39:01.741Z,92.10
2018-01-15T20:41:29.344Z,92.21
2018-01-15T20:43:56.932Z,92.25
2018-01-15T20:46:24.507Z,92.48
2018-01-15T20:48:52.144Z,92.31
2018-01-15T20:51:19.770Z,92.20
2018-01-15T20:53:47.373Z,91.51
2018-01-15T20:56:14.990Z,91.25
2018-01-15T20:58:42.605Z,91.24
2018-01-15T21:01:10.225Z,91.19
2018-01-15T21:03:37.847Z,91.19
2018-01-15T21:06:05.575Z,90.69
2018-01-15T21:08:33.166Z,90.89
2018-01-15T21:11:00.787Z,91.16
2018-01-15T21:13:29.843Z,91.29
2018-01-15T21:15:57.443Z,91.45
2018-01-15T21:18:25.065Z,91.73
2018-01-15T21:20:52.699Z,92.07
2018-01-15T21:23:20.528Z,92.07
2018-01-15T21:25:48.376Z,91.96
2018-01-15T21:28:16.580Z,91.73
2018-01-15T21:30:44.376Z,91.58
2018-01-15T21:33:12.132Z,91.71
2018-01-15T21:35:39.745Z,91.88
2018-01-15T21:38:08.510Z,92.17
2018-01-15T21:40:36.545Z,92.44
2018-01-15T21:43:04.130Z,92.55
2018-01-15T21:45:32.413Z,92.44
2018-01-15T21:48:00.068Z,92.49
2018-01-15T21:50:28.173Z,92.41
2018-01-15T21:52:55.879Z,92.03
2018-01-15T21:55:23.822Z,91.95
2018-01-15T21:57:51.427Z,92.15
2018-01-15T22:00:19.134Z,92.12
2018-01-15T22:02:47.121Z,92.00
2018-01-15T22:05:14.707Z,91.57
2018-01-15T22:07:42.303Z,92.01
2018-01-15T22:12:59.930Z,91.90
2018-01-15T22:15:27.492Z,91.13
2018-01-15T22:17:55.054Z,90.75
2018-01-15T22:20:22.633Z,90.81
2018-01-15T22:22:50.216Z,91.05
2018-01-15T22:25:17.837Z,91.46
2018-01-15T22:27:45.404Z,91.21
2018-01-15T22:30:13.069Z,91.40
2018-01-15T22:32:40.683Z,91.37
2018-01-15T22:35:08.788Z,91.49
2018-01-15T22:37:36.481Z,91.62
2018-01-15T22:40:04.124Z,91.78
2018-01-15T22:42:31.978Z,91.89
2018-01-15T22:44:59.616Z,91.59
2018-01-15T22:47:27.475Z,91.51
2018-01-15T22:49:55.108Z,91.57
2018-01-15T22:52:22.721Z,91.39
2018-01-15T22:54:50.286Z,91.33
2018-01-15T22:57:17.888Z,90.65
2018-01-15T22:59:45.481Z,90.24
2018-01-15T23:02:13.365Z,90.47
2018-01-15T23:04:40.955Z,90.33
2018-01-15T23:07:09.722Z,89.95
2018-01-15T23:09:37.426Z,90.20
2018-01-15T23:12:05.129Z,90.35
2018-01-15T23:14:32.720Z,90.38
2018-01-15T23:17:00.385Z,89.24
2018-01-15T23:19:27.979Z,89.21
2018-01-15T23:21:55.586Z,89.10
2018-01-15T23:24:23.176Z,89.55
2018-01-15T23:26:50.853Z,89.91
2018-01-15T23:29:20.578Z,90.30
2018-01-15T23:31:48.216Z,90.83
2018-01-15T23:34:15.836Z,91.04
2018-01-15T23:36:45.664Z,90.90
2018-01-15T23:39:17.444Z,90.56
2018-01-15T23:41:45.228Z,90.21
2018-01-15T23:44:15.244Z,89.83
2018-01-15T23:46:42.928Z,90.09
2018-01-15T23:49:12.256Z,89.96
2018-01-15T23:51:40.761Z,89.92
2018-01-15T23:54:08.402Z,89.99
2018-01-15T23:56:36.224Z,89.36
2018-01-15T23:59:04.621Z,89.05
